createdAt,value
2023-05-05T00:00:00.499Z,4
2023-05-05T00:04:00.577Z,4
2023-05-05T00:08:00.429Z,5
2023-05-05T00:12:00.472Z,5
2023-05-05T00:16:00.446Z,5
2023-05-05T00:20:00.478Z,5
2023-05-05T00:24:00.485Z,5
2023-05-05T00:28:00.450Z,5
2023-05-05T00:32:00.472Z,5
2023-05-05T00:36:00.460Z,5
2023-05-05T00:40:00.452Z,4
2023-05-05T00:44:00.468Z,5
2023-05-05T00:48:00.531Z,5
2023-05-05T00:52:00.450Z,5
2023-05-05T00:56:00.451Z,5
2023-05-05T01:00:00.440Z,4
2023-05-05T01:04:00.477Z,4
2023-05-05T01:08:00.465Z,5
2023-05-05T01:12:00.426Z,5
2023-05-05T01:16:00.504Z,4
2023-05-05T01:20:00.432Z,5
2023-05-05T01:24:00.457Z,4
2023-05-05T01:28:00.438Z,5
2023-05-05T01:32:00.573Z,4
2023-05-05T01:36:00.424Z,5
2023-05-05T01:40:00.431Z,5
2023-05-05T01:44:00.449Z,5
2023-05-05T01:48:00.455Z,5
2023-05-05T01:52:00.437Z,4
2023-05-05T01:56:00.454Z,4
2023-05-05T02:00:00.479Z,5
2023-05-05T02:04:00.463Z,5
2023-05-05T02:08:00.440Z,5
2023-05-05T02:12:00.444Z,5
2023-05-05T02:16:00.454Z,5
2023-05-05T02:20:00.463Z,4
2023-05-05T02:24:00.449Z,4
2023-05-05T02:28:00.458Z,5
2023-05-05T02:32:00.457Z,5
2023-05-05T02:36:00.473Z,4
2023-05-05T02:40:00.452Z,4
2023-05-05T02:44:00.471Z,5
2023-05-05T02:48:00.490Z,5
2023-05-05T02:52:00.480Z,5
2023-05-05T02:56:00.457Z,6
2023-05-05T03:00:00.461Z,4
2023-05-05T03:04:00.444Z,5
2023-05-05T03:08:00.459Z,5
2023-05-05T03:12:00.475Z,5
2023-05-05T03:16:00.511Z,5
2023-05-05T03:20:02.949Z,5
2023-05-05T03:24:00.455Z,5
2023-05-05T03:28:00.446Z,5
2023-05-05T03:32:00.536Z,5
2023-05-05T03:36:00.465Z,5
2023-05-05T03:40:00.422Z,5
2023-05-05T03:44:00.457Z,6
2023-05-05T03:48:00.473Z,5
2023-05-05T03:52:00.430Z,6
2023-05-05T03:56:00.431Z,6
2023-05-05T04:00:00.451Z,5
2023-05-05T04:04:00.526Z,6
2023-05-05T04:08:00.456Z,5
2023-05-05T04:12:00.457Z,6
2023-05-05T04:16:00.507Z,5
2023-05-05T04:20:00.476Z,6
2023-05-05T04:24:00.428Z,6
2023-05-05T04:28:00.453Z,6
2023-05-05T04:32:00.464Z,6
2023-05-05T04:36:00.436Z,14
2023-05-05T04:40:00.439Z,5
2023-05-05T04:44:00.440Z,6
2023-05-05T04:48:00.445Z,6
2023-05-05T04:52:00.441Z,6
2023-05-05T04:56:00.451Z,5
2023-05-05T05:00:00.463Z,5
2023-05-05T05:04:00.614Z,6
2023-05-05T05:08:00.436Z,6
2023-05-05T05:12:00.443Z,6
2023-05-05T05:16:00.573Z,6
2023-05-05T05:20:00.457Z,6
2023-05-05T05:24:00.448Z,6
2023-05-05T05:28:09.379Z,6
2023-05-05T05:32:00.485Z,6
2023-05-05T05:36:00.474Z,6
2023-05-05T05:40:00.437Z,6
2023-05-05T05:44:00.466Z,7
2023-05-05T05:48:00.486Z,6
2023-05-05T05:52:00.481Z,7
2023-05-05T05:56:00.452Z,7
2023-05-05T06:00:01.930Z,7
2023-05-05T06:04:00.554Z,7
2023-05-05T06:08:00.479Z,7
2023-05-05T06:12:00.451Z,8
2023-05-05T06:16:00.471Z,7
2023-05-05T06:20:00.470Z,7
2023-05-05T06:24:00.468Z,6
2023-05-05T06:28:00.447Z,7
2023-05-05T06:32:00.444Z,6
2023-05-05T06:36:00.441Z,6
2023-05-05T06:40:00.439Z,6
2023-05-05T06:44:00.420Z,6
2023-05-05T06:48:00.488Z,7
2023-05-05T06:52:00.463Z,5
2023-05-05T06:56:00.423Z,6
2023-05-05T07:00:00.436Z,6
2023-05-05T07:04:00.532Z,6
2023-05-05T07:08:00.461Z,6
2023-05-05T07:12:00.423Z,8
2023-05-05T07:16:00.443Z,5
2023-05-05T07:20:00.434Z,6
2023-05-05T07:24:00.474Z,5
2023-05-05T07:28:00.435Z,6
2023-05-05T07:32:00.489Z,5
2023-05-05T07:36:00.478Z,6
2023-05-05T07:40:00.482Z,5
2023-05-05T07:44:00.444Z,4
2023-05-05T07:48:00.700Z,5
2023-05-05T07:52:00.444Z,5
2023-05-05T07:56:00.466Z,5
2023-05-05T08:00:00.470Z,5
2023-05-05T08:04:00.525Z,5
2023-05-05T08:08:00.461Z,6
2023-05-05T08:12:00.438Z,6
2023-05-05T08:16:00.505Z,5
2023-05-05T08:20:00.443Z,5
2023-05-05T08:24:00.450Z,6
2023-05-05T08:28:00.437Z,5
2023-05-05T08:32:00.590Z,5
2023-05-05T08:36:00.460Z,5
2023-05-05T08:40:00.562Z,5
2023-05-05T08:44:00.436Z,7
2023-05-05T08:48:00.493Z,5
2023-05-05T08:52:00.440Z,5
2023-05-05T08:56:00.435Z,5
2023-05-05T09:00:00.465Z,4
2023-05-05T09:04:00.436Z,4
2023-05-05T09:08:00.461Z,4
2023-05-05T09:12:00.447Z,4
2023-05-05T09:16:00.450Z,4
2023-05-05T09:20:00.467Z,4
2023-05-05T09:24:07.751Z,4
2023-05-05T09:28:00.459Z,4
2023-05-05T09:32:00.454Z,4
2023-05-05T09:36:00.439Z,5
2023-05-05T09:40:00.449Z,4
2023-05-05T09:44:00.465Z,4
2023-05-05T09:48:00.917Z,5
2023-05-05T09:52:00.445Z,4
2023-05-05T09:56:00.441Z,4
2023-05-05T10:00:00.449Z,4
2023-05-05T10:04:00.453Z,5
2023-05-05T10:08:00.436Z,4
2023-05-05T10:12:00.457Z,4
2023-05-05T10:16:00.432Z,4
2023-05-05T10:20:00.461Z,4
2023-05-05T10:24:00.442Z,4
2023-05-05T10:28:00.423Z,4
2023-05-05T10:32:00.497Z,4
2023-05-05T10:36:00.455Z,4
2023-05-05T10:40:00.465Z,4
2023-05-05T10:44:02.854Z,5
2023-05-05T10:48:00.508Z,5
2023-05-05T10:52:00.444Z,4
2023-05-05T10:56:00.454Z,4
2023-05-05T11:00:00.437Z,4
2023-05-05T11:04:00.499Z,4
2023-05-05T11:08:00.433Z,3
2023-05-05T11:12:00.456Z,4
2023-05-05T11:16:00.448Z,6
2023-05-05T11:20:00.448Z,3
2023-05-05T11:24:00.465Z,3
2023-05-05T11:28:00.434Z,4
2023-05-05T11:32:00.439Z,4
2023-05-05T11:36:00.974Z,4
2023-05-05T11:40:00.456Z,3
2023-05-05T11:44:00.461Z,4
2023-05-05T11:48:00.524Z,3
2023-05-05T11:52:00.476Z,3
2023-05-05T11:56:00.442Z,4
2023-05-05T12:00:00.456Z,4
2023-05-05T12:04:00.566Z,3
2023-05-05T12:08:00.447Z,4
2023-05-05T12:12:00.449Z,4
2023-05-05T12:16:00.470Z,3
2023-05-05T12:20:00.452Z,3
2023-05-05T12:24:00.422Z,3
2023-05-05T12:28:00.458Z,3
2023-05-05T12:32:00.556Z,3
2023-05-05T12:36:00.441Z,3
2023-05-05T12:40:00.455Z,3
2023-05-05T12:44:00.461Z,3
2023-05-05T12:48:00.465Z,3
2023-05-05T12:52:00.437Z,4
2023-05-05T12:56:00.436Z,3
2023-05-05T13:00:00.486Z,3
2023-05-05T13:04:00.451Z,3
2023-05-05T13:08:00.453Z,3
2023-05-05T13:12:00.440Z,3
2023-05-05T13:16:00.461Z,3
2023-05-05T13:20:00.482Z,3
2023-05-05T13:24:18.248Z,3
2023-05-05T13:28:00.458Z,3
2023-05-05T13:32:00.456Z,3
2023-05-05T13:36:00.455Z,2
2023-05-05T13:40:00.483Z,3
2023-05-05T13:44:00.455Z,3
2023-05-05T13:48:00.467Z,2
2023-05-05T13:52:00.448Z,3
2023-05-05T13:56:00.451Z,3
2023-05-05T14:00:00.463Z,3
2023-05-05T14:04:02.016Z,3
2023-05-05T14:08:00.451Z,3
2023-05-05T14:12:00.442Z,3
2023-05-05T14:16:00.506Z,3
2023-05-05T14:20:00.434Z,3
2023-05-05T14:24:00.477Z,3
2023-05-05T14:28:00.445Z,3
2023-05-05T14:32:00.510Z,3
2023-05-05T14:36:00.457Z,3
2023-05-05T14:40:00.443Z,3
2023-05-05T14:44:00.453Z,3
2023-05-05T14:48:00.484Z,3
2023-05-05T14:52:00.483Z,3
2023-05-05T14:56:00.472Z,2
2023-05-05T15:00:00.465Z,3
2023-05-05T15:04:00.520Z,3
2023-05-05T15:08:00.462Z,3
2023-05-05T15:12:00.454Z,2
2023-05-05T15:16:00.532Z,3
2023-05-05T15:20:00.450Z,3
2023-05-05T15:24:00.453Z,3
2023-05-05T15:28:00.430Z,3
2023-05-05T15:32:00.617Z,3
2023-05-05T15:36:00.460Z,6
2023-05-05T15:40:00.440Z,3
2023-05-05T15:44:00.447Z,3
2023-05-05T15:48:00.485Z,3
2023-05-05T15:52:00.436Z,3
2023-05-05T15:56:00.466Z,4
2023-05-05T16:00:00.450Z,3
2023-05-05T16:04:00.448Z,3
2023-05-05T16:08:00.440Z,3
2023-05-05T16:12:00.473Z,3
2023-05-05T16:16:00.444Z,4
2023-05-05T16:20:00.487Z,4
2023-05-05T16:24:00.440Z,4
2023-05-05T16:28:00.484Z,4
2023-05-05T16:32:00.453Z,4
2023-05-05T16:36:00.448Z,3
2023-05-05T16:40:00.453Z,3
2023-05-05T16:44:00.437Z,4
2023-05-05T16:48:00.505Z,4
2023-05-05T16:52:00.463Z,4
2023-05-05T16:56:00.485Z,4
2023-05-05T17:00:00.448Z,4
2023-05-05T17:04:00.435Z,4
2023-05-05T17:08:00.438Z,3
2023-05-05T17:12:00.428Z,4
2023-05-05T17:16:00.488Z,4
2023-05-05T17:20:00.533Z,4
2023-05-05T17:24:00.458Z,5
2023-05-05T17:28:00.445Z,4
2023-05-05T17:32:00.530Z,4
2023-05-05T17:36:00.492Z,4
2023-05-05T17:40:00.448Z,4
2023-05-05T17:44:00.467Z,4
2023-05-05T17:48:00.528Z,5
2023-05-05T17:52:00.447Z,5
2023-05-05T17:56:00.444Z,5
2023-05-05T18:00:00.439Z,5
2023-05-05T18:04:00.457Z,4
2023-05-05T18:08:00.436Z,4
2023-05-05T18:12:00.449Z,4
2023-05-05T18:16:00.488Z,5
2023-05-05T18:20:00.434Z,6
2023-05-05T18:24:11.619Z,5
2023-05-05T18:28:00.475Z,5
2023-05-05T18:32:00.445Z,5
2023-05-05T18:36:00.501Z,5
2023-05-05T18:40:00.441Z,5
2023-05-05T18:44:00.426Z,5
2023-05-05T18:48:00.487Z,5
2023-05-05T18:52:00.454Z,5
2023-05-05T18:56:00.457Z,5
2023-05-05T19:00:00.463Z,5
2023-05-05T19:04:00.470Z,5
2023-05-05T19:08:00.445Z,5
2023-05-05T19:12:00.461Z,4
2023-05-05T19:16:00.500Z,5
2023-05-05T19:20:00.495Z,5
2023-05-05T19:24:00.473Z,6
2023-05-05T19:28:00.455Z,5
2023-05-05T19:32:00.581Z,5
2023-05-05T19:36:00.458Z,5
2023-05-05T19:40:00.455Z,4
2023-05-05T19:44:00.436Z,5
2023-05-05T19:48:00.453Z,5
2023-05-05T19:52:00.431Z,5
2023-05-05T19:56:00.429Z,5
2023-05-05T20:00:00.444Z,5
2023-05-05T20:04:00.495Z,5
2023-05-05T20:08:00.443Z,4
2023-05-05T20:12:00.441Z,6
2023-05-05T20:16:00.507Z,4
2023-05-05T20:20:00.435Z,5
2023-05-05T20:24:00.445Z,5
2023-05-05T20:28:00.479Z,5
2023-05-05T20:32:00.452Z,5
2023-05-05T20:36:00.470Z,5
2023-05-05T20:40:00.458Z,5
2023-05-05T20:44:00.435Z,5
2023-05-05T20:48:00.510Z,5
2023-05-05T20:52:00.489Z,5
2023-05-05T20:56:00.434Z,5
2023-05-05T21:00:00.454Z,5
2023-05-05T21:04:00.504Z,5
2023-05-05T21:08:01.009Z,5
2023-05-05T21:12:00.468Z,5
2023-05-05T21:16:00.451Z,4
2023-05-05T21:20:00.455Z,4
2023-05-05T21:24:00.434Z,5
2023-05-05T21:28:00.447Z,5
2023-05-05T21:32:00.484Z,5
2023-05-05T21:36:00.679Z,5
2023-05-05T21:40:00.464Z,5
2023-05-05T21:44:00.454Z,5
2023-05-05T21:48:00.488Z,5
2023-05-05T21:52:00.589Z,5
2023-05-05T21:56:00.432Z,5
2023-05-05T22:00:00.498Z,5
2023-05-05T22:04:00.488Z,5
2023-05-05T22:08:00.459Z,5
2023-05-05T22:12:00.474Z,5
2023-05-05T22:16:00.474Z,5
2023-05-05T22:20:00.462Z,5
2023-05-05T22:24:00.468Z,5
2023-05-05T22:28:00.431Z,5
2023-05-05T22:32:00.452Z,6
2023-05-05T22:36:00.448Z,5
2023-05-05T22:40:00.471Z,5
2023-05-05T22:44:00.453Z,5
2023-05-05T22:48:00.449Z,5
2023-05-05T22:52:00.443Z,5
2023-05-05T22:56:00.479Z,6
2023-05-05T23:00:00.468Z,6
2023-05-05T23:04:00.438Z,6
2023-05-05T23:08:00.446Z,6
2023-05-05T23:12:00.425Z,6
2023-05-05T23:16:00.470Z,6
2023-05-05T23:20:00.468Z,6
2023-05-05T23:24:00.452Z,5
2023-05-05T23:28:00.473Z,6
2023-05-05T23:32:00.432Z,6
2023-05-05T23:36:00.464Z,6
2023-05-05T23:40:00.445Z,6
2023-05-05T23:44:00.448Z,6
2023-05-05T23:48:00.503Z,6
2023-05-05T23:52:00.440Z,7
2023-05-05T23:56:00.433Z,6
